^^
Datos históricos de la estación: Murcia-Puente Tocinos
Diario Informe para Julio 28, 2021 Unidades:  Métrico    Ingés   Ambas
Diario Semanal Mensual Anual
  Máxima: Mínima: Promedio:
Temperatura: 30.2 °C 21.6 °C 26 °C
Punto de rocio: 21.8 °C 17.6 °C 19.6 °C
Humedad: 85% 50.8% 69%
Velocidad viento: 19.8km/h 0km/h 9km/h
Racha viento: 37.8km/h - -
Viento- - ENE
Presión: 1013.9 hPa 1010.7 hPa -
Precipitación: 0.0 mm    
 
 
Tabla de datos para Julio 28, 2021
Hora Temperatura Punto de rocio Presión Viento Velocidad viento Racha viento Humedad Intensidad lluvia(por hora) Nubes
00:04 24.2 °C 20.3 °C 1011.8 hPa NE 9.5 km/h 13 km/h 79% 0.0 mm
00:09 24.2 °C 20.3 °C 1011.8 hPa NNE 8.4 km/h 12.9 km/h 79% 0.0 mm
00:14 24.1 °C 20.2 °C 1011.8 hPa NNE 7.6 km/h 11.3 km/h 79% 0.0 mm
00:19 24.1 °C 20.3 °C 1011.8 hPa NNE 7.2 km/h 9.5 km/h 79.5% 0.0 mm
00:24 24.1 °C 20.4 °C 1011.9 hPa NNE 6.9 km/h 9.7 km/h 80% 0.0 mm
00:29 24.1 °C 20.4 °C 1011.9 hPa NE 6.3 km/h 9.7 km/h 80% 0.0 mm
00:34 24.1 °C 20.4 °C 1011.9 hPa NNE 5.8 km/h 9.7 km/h 80% 0.0 mm
00:39 24.1 °C 20.4 °C 1011.9 hPa NNE 5.3 km/h 9.7 km/h 80% 0.0 mm
00:44 24 °C 20.3 °C 1011.9 hPa NNE 5 km/h 8.4 km/h 80% 0.0 mm
00:49 23.9 °C 20.4 °C 1011.9 hPa NE 4.8 km/h 8 km/h 80.8% 0.0 mm
00:54 23.9 °C 20.4 °C 1011.9 hPa NE 4.7 km/h 8 km/h 81% 0.0 mm
00:59 23.9 °C 20.4 °C 1011.9 hPa NE 3.2 km/h 7.4 km/h 81% 0.0 mm
01:04 23.9 °C 20.4 °C 1011.9 hPa ENE 2.2 km/h 8 km/h 81% 0.0 mm
01:09 23.9 °C 20.6 °C 1011.9 hPa NE 2.8 km/h 8.4 km/h 81.7% 0.0 mm
01:14 23.8 °C 20.6 °C 1011.9 hPa NE 3.2 km/h 8 km/h 82% 0.0 mm
01:19 23.8 °C 20.6 °C 1011.9 hPa NE 3.2 km/h 5.8 km/h 82% 0.0 mm
01:24 23.8 °C 20.6 °C 1012.0 hPa North 3.2 km/h 6.4 km/h 82% 0.0 mm
01:29 23.8 °C 20.6 °C 1012.0 hPa North 3.2 km/h 4.8 km/h 82% 0.0 mm
01:34 23.7 °C 20.5 °C 1012.0 hPa North 3.2 km/h 4.8 km/h 82% 0.0 mm
01:39 23.7 °C 20.4 °C 1012.0 hPa North 3 km/h 6.9 km/h 82% 0.0 mm
01:44 23.7 °C 20.4 °C 1012.0 hPa NNO 2.9 km/h 8 km/h 82% 0.0 mm
01:49 23.7 °C 20.4 °C 1012.0 hPa NNO 3.1 km/h 8 km/h 82% 0.0 mm
01:54 23.6 °C 20.3 °C 1012.0 hPa NNO 3.2 km/h 4.8 km/h 82% 0.0 mm
01:59 23.6 °C 20.3 °C 1011.9 hPa NNO 3 km/h 5.8 km/h 82% 0.0 mm
02:04 23.6 °C 20.4 °C 1011.9 hPa NNO 2.9 km/h 6.4 km/h 82.4% 0.0 mm
02:09 23.5 °C 20.3 °C 1011.9 hPa NNO 2.9 km/h 5.8 km/h 82.2% 0.0 mm
02:14 23.4 °C 20.4 °C 1011.8 hPa ENE 2.9 km/h 6.4 km/h 83% 0.0 mm
02:19 23.4 °C 20.3 °C 1011.8 hPa Este 3.5 km/h 7.4 km/h 83% 0.0 mm
02:24 23.2 °C 19.9 °C 1011.8 hPa Este 3.9 km/h 8.4 km/h 81.4% 0.0 mm
02:29 23 °C 19.1 °C 1011.7 hPa Este 4.3 km/h 8 km/h 78.7% 0.0 mm
02:34 22.7 °C 18.3 °C 1011.7 hPa Este 4.7 km/h 8 km/h 76.3% 0.0 mm
02:39 22.7 °C 18.2 °C 1011.7 hPa Este 4.6 km/h 8 km/h 76% 0.0 mm
02:44 22.6 °C 18.2 °C 1011.6 hPa Este 4.7 km/h 5.8 km/h 76% 0.0 mm
02:49 22.7 °C 18.2 °C 1011.6 hPa ENE 3.6 km/h 6.4 km/h 76% 0.0 mm
02:54 22.7 °C 18.1 °C 1011.6 hPa ENE 2.9 km/h 4.7 km/h 75.2% 0.0 mm
02:59 22.7 °C 18 °C 1011.5 hPa ENE 2.9 km/h 7.4 km/h 75% 0.0 mm
03:04 22.6 °C 18.1 °C 1011.5 hPa ENE 2.9 km/h 8 km/h 75.7% 0.0 mm
03:09 22.6 °C 18.2 °C 1011.5 hPa ENE 2.9 km/h 5.8 km/h 76% 0.0 mm
03:14 22.6 °C 18.2 °C 1011.5 hPa ENE 2.9 km/h 6.4 km/h 76% 0.0 mm
03:19 22.6 °C 18 °C 1011.5 hPa Este 3.1 km/h 7.4 km/h 75.3% 0.0 mm
03:24 22.6 °C 17.9 °C 1011.5 hPa Este 3.2 km/h 8 km/h 75% 0.0 mm
03:29 22.5 °C 17.8 °C 1011.4 hPa Este 3.2 km/h 7.4 km/h 75% 0.0 mm
03:34 22.4 °C 17.7 °C 1011.4 hPa Este 3.2 km/h 8 km/h 75% 0.0 mm
03:39 22.4 °C 17.6 °C 1011.4 hPa ESE 3.2 km/h 6.4 km/h 74.4% 0.0 mm
03:44 22.4 °C 17.7 °C 1011.2 hPa Este 3.2 km/h 5.6 km/h 74.7% 0.0 mm
03:49 22.5 °C 17.8 °C 1011.2 hPa ENE 3.2 km/h 5.8 km/h 75% 0.0 mm
03:54 22.5 °C 17.9 °C 1011.2 hPa ENE 3.2 km/h 6.4 km/h 75.3% 0.0 mm
03:59 22.5 °C 18.1 °C 1011.2 hPa ENE 3.2 km/h 6.4 km/h 76.2% 0.0 mm
04:04 22.6 °C 18.4 °C 1011.2 hPa NE 3.2 km/h 6.4 km/h 77% 0.0 mm
04:09 22.6 °C 18.5 °C 1011.2 hPa NE 3 km/h 5.8 km/h 77.4% 0.0 mm
04:14 22.7 °C 18.9 °C 1011.2 hPa NE 2.9 km/h 7.4 km/h 79% 0.0 mm
04:19 22.7 °C 19.1 °C 1011.2 hPa NNE 3.5 km/h 8 km/h 80% 0.0 mm
04:24 22.6 °C 19.1 °C 1011.2 hPa North 3.9 km/h 8 km/h 80.3% 0.0 mm
04:29 22.6 °C 19.2 °C 1011.2 hPa North 3.3 km/h 6.4 km/h 81% 0.0 mm
04:34 22.4 °C 19.1 °C 1011.2 hPa North 2.9 km/h 5.8 km/h 81.2% 0.0 mm
04:39 22.4 °C 19.2 °C 1011.2 hPa North 2.9 km/h 6.4 km/h 82% 0.0 mm
04:44 22.3 °C 19.2 °C 1011.1 hPa North 2.9 km/h 6.4 km/h 82.7% 0.0 mm
04:49 22.2 °C 19.2 °C 1011.1 hPa North 2.5 km/h 3.9 km/h 83% 0.0 mm
04:54 22.2 °C 19.2 °C 1011.1 hPa North 2.2 km/h 3.7 km/h 83.4% 0.0 mm
04:59 22.1 °C 19.3 °C 1011.1 hPa North 2.2 km/h 5.6 km/h 84% 0.0 mm
05:04 22.1 °C 19.3 °C 1011.1 hPa North 2.2 km/h 5.6 km/h 84% 0.0 mm
05:09 22.1 °C 19.4 °C 1011.1 hPa North 2.6 km/h 4.8 km/h 84.7% 0.0 mm
05:14 22.1 °C 19.4 °C 1011.0 hPa North 2.9 km/h 3.9 km/h 85% 0.0 mm
05:19 22.1 °C 19.4 °C 1011.0 hPa North 2.5 km/h 3.9 km/h 85% 0.0 mm
05:24 22.1 °C 19.4 °C 1011.0 hPa North 2.2 km/h 3.7 km/h 85% 0.0 mm
05:29 22 °C 19.3 °C 1011.0 hPa North 1 km/h 3.2 km/h 85% 0.0 mm
05:34 21.9 °C 19.3 °C 1011.0 hPa Calm   5.6 km/h 85% 0.0 mm
05:39 21.9 °C 19.1 °C 1011.0 hPa ESE 1.7 km/h 5.6 km/h 84.1% 0.0 mm
05:44 21.9 °C 19.1 °C 1010.8 hPa ESE 2.9 km/h 4.8 km/h 84% 0.0 mm
05:49 21.8 °C 19 °C 1010.8 hPa SE 1.1 km/h 4.7 km/h 84% 0.0 mm
05:54 21.8 °C 19 °C 1010.8 hPa Calm   5.8 km/h 84% 0.0 mm
05:59 21.8 °C 19 °C 1010.8 hPa ESE 1.9 km/h 6.4 km/h 84% 0.0 mm
06:04 21.8 °C 19 °C 1010.8 hPa ESE 2.9 km/h 3.2 km/h 84% 0.0 mm
06:09 21.8 °C 19 °C 1010.8 hPa ESE 1.1 km/h   84% 0.0 mm
06:14 21.8 °C 19 °C 1010.7 hPa Calm   3.9 km/h 84% 0.0 mm
06:19 21.8 °C 18.9 °C 1010.7 hPa Calm   4.7 km/h 83.4% 0.0 mm
06:24 21.7 °C 18.7 °C 1010.8 hPa Calm   3.7 km/h 83% 0.0 mm
06:29 21.7 °C 18.7 °C 1010.8 hPa Calm   3.2 km/h 83% 0.0 mm
06:34 21.7 °C 18.6 °C 1010.8 hPa Calm     83% 0.0 mm
06:39 21.6 °C 18.6 °C 1010.8 hPa Calm     83% 0.0 mm
06:44 21.6 °C 18.6 °C 1010.8 hPa Calm   3.7 km/h 83% 0.0 mm
06:49 21.7 °C 18.8 °C 1010.8 hPa Calm   3.9 km/h 83.6% 0.0 mm
06:54 21.7 °C 18.8 °C 1011.0 hPa Calm   3.9 km/h 83.3% 0.0 mm
06:59 21.7 °C 18.7 °C 1011.0 hPa ENE 1.4 km/h 4.7 km/h 83% 0.0 mm
07:04 21.7 °C 18.7 °C 1011.0 hPa ESE 2.2 km/h 5.6 km/h 82.9% 0.0 mm
07:09 21.7 °C 18.7 °C 1011.1 hPa ESE 2.2 km/h 4.8 km/h 83% 0.0 mm
07:14 21.7 °C 18.7 °C 1011.1 hPa ESE 2.2 km/h 3.2 km/h 83% 0.0 mm
07:19 21.7 °C 18.7 °C 1011.1 hPa ESE 1 km/h 5.8 km/h 83% 0.0 mm
07:24 21.7 °C 18.6 °C 1011.3 hPa Calm   6.4 km/h 82.8% 0.0 mm
07:29 21.8 °C 18.6 °C 1011.3 hPa SE 2.2 km/h 7.6 km/h 82% 0.0 mm
07:34 21.8 °C 18.6 °C 1011.3 hPa SE 3.9 km/h 8.4 km/h 82% 0.0 mm
07:39 21.8 °C 18.6 °C 1011.3 hPa SSE 4.5 km/h 9.5 km/h 82% 0.0 mm
07:44 21.8 °C 18.6 °C 1011.3 hPa SSE 5 km/h 11.1 km/h 82% 0.0 mm
07:49 21.8 °C 18.6 °C 1011.3 hPa SSE 5.9 km/h 11.3 km/h 82% 0.0 mm
07:54 21.8 °C 18.7 °C 1011.4 hPa SSE 6.5 km/h 9.7 km/h 82.8% 0.0 mm
07:59 21.8 °C 18.8 °C 1011.4 hPa SSE 5.5 km/h 9.7 km/h 83% 0.0 mm
08:04 22 °C 19 °C 1011.4 hPa SSE 5 km/h 6.4 km/h 83% 0.0 mm
08:09 22.2 °C 19 °C 1011.4 hPa Sur 4.3 km/h 6.4 km/h 82.4% 0.0 mm
08:14 22.3 °C 19.1 °C 1011.4 hPa SSO 3.9 km/h 7.6 km/h 82% 0.0 mm
08:19 22.5 °C 19.1 °C 1011.4 hPa Oeste 3.5 km/h 8 km/h 81% 0.0 mm
08:24 22.6 °C 19.2 °C 1011.4 hPa OSO 3.2 km/h 8.4 km/h 80.9% 0.0 mm
08:29 22.7 °C 19 °C 1011.4 hPa SO 4.2 km/h 8.4 km/h 80% 0.0 mm
08:34 22.8 °C 19.1 °C 1011.4 hPa OSO 5 km/h 11.1 km/h 79.6% 0.0 mm
08:39 22.8 °C 18.9 °C 1011.5 hPa OSO 5.9 km/h 13 km/h 78.8% 0.0 mm
08:44 22.8 °C 19 °C 1011.5 hPa OSO 6.5 km/h 12.9 km/h 79% 0.0 mm
08:49 22.9 °C 18.9 °C 1011.5 hPa OSO 6.5 km/h 10 km/h 78.3% 0.0 mm
08:54 22.9 °C 18.9 °C 1011.6 hPa OSO 6.5 km/h 11.1 km/h 78% 0.0 mm
08:59 23.1 °C 19 °C 1011.6 hPa OSO 6.5 km/h 11.3 km/h 78% 0.0 mm
09:04 23.2 °C 19.1 °C 1011.6 hPa SO 6.5 km/h 9.7 km/h 78% 0.0 mm
09:09 23.3 °C 19.2 °C 1011.8 hPa SSO 5.5 km/h 9.7 km/h 78% 0.0 mm
09:14 23.5 °C 19.4 °C 1011.8 hPa Sur 4.7 km/h 9.3 km/h 77.6% 0.0 mm
09:19 23.7 °C 19.3 °C 1011.8 hPa SSO 4.6 km/h 10 km/h 76.3% 0.0 mm
09:24 23.8 °C 19.3 °C 1011.8 hPa OSO 4.7 km/h 9.7 km/h 76% 0.0 mm
09:29 24.1 °C 19.6 °C 1011.8 hPa SO 3.8 km/h 8 km/h 76.2% 0.0 mm
09:34 24.6 °C 19.7 °C 1011.8 hPa ESE 3.2 km/h 6.4 km/h 74.5% 0.0 mm
09:39 24.9 °C 19.6 °C 1011.9 hPa OSO 3 km/h 6.4 km/h 72.7% 0.0 mm
09:44 25.1 °C 19.5 °C 1011.9 hPa OSO 2.9 km/h 7.6 km/h 71.2% 0.0 mm
09:49 25.1 °C 19.3 °C 1011.9 hPa Oeste 3.5 km/h 8 km/h 70.5% 0.0 mm
09:54 25.2 °C 19.4 °C 1011.9 hPa NO 3.9 km/h 8 km/h 70.5% 0.0 mm
09:59 25.5 °C 19.5 °C 1011.9 hPa ENE 3.9 km/h 8 km/h 69.4% 0.0 mm
10:04 25.7 °C 19.4 °C 1011.9 hPa Este 3.9 km/h 8 km/h 68.5% 0.0 mm
10:09 25.8 °C 19.5 °C 1012.0 hPa SO 3.9 km/h 8 km/h 68.1% 0.0 mm
10:14 26 °C 19.5 °C 1012.0 hPa NNE 3.9 km/h 8 km/h 67.3% 0.0 mm
10:19 26.3 °C 19.5 °C 1012.0 hPa NE 3.5 km/h 8 km/h 66.3% 0.0 mm
10:24 26.6 °C 19.3 °C 1012.0 hPa NNE 3.2 km/h 8.4 km/h 64.5% 0.0 mm
10:29 26.7 °C 19.2 °C 1012.0 hPa North 3.6 km/h 8 km/h 63.5% 0.0 mm
10:34 26.9 °C 19.3 °C 1012.0 hPa NNE 3.9 km/h 5.8 km/h 63% 0.0 mm
10:39 27.1 °C 19.5 °C 1012.1 hPa Este 3.3 km/h 10 km/h 63% 0.0 mm
10:44 27.3 °C 19.6 °C 1012.1 hPa North 2.9 km/h 9.7 km/h 63% 0.0 mm
10:49 27.4 °C 19.6 °C 1012.1 hPa NNE 4.1 km/h 10 km/h 62.7% 0.0 mm
10:54 27.5 °C 19.6 °C 1012.2 hPa North 5 km/h 9.7 km/h 62% 0.0 mm
10:59 27.4 °C 18.9 °C 1012.2 hPa NE 5.9 km/h 14.8 km/h 59.6% 0.0 mm
11:04 27.2 °C 18.6 °C 1012.2 hPa NNE 6.5 km/h 18.5 km/h 59.5% 0.0 mm
11:09 27.3 °C 18.9 °C 1012.4 hPa NNE 8.3 km/h 19.3 km/h 60.1% 0.0 mm
11:14 27.3 °C 18.6 °C 1012.4 hPa NE 9.5 km/h 20.1 km/h 59% 0.0 mm
11:19 27.4 °C 18.2 °C 1012.4 hPa NE 10.9 km/h 20.9 km/h 57.1% 0.0 mm
11:24 27.7 °C 18.6 °C 1012.4 hPa NNE 11.9 km/h 20.9 km/h 57.9% 0.0 mm
11:29 28 °C 19.2 °C 1012.4 hPa NE 10.9 km/h 22.5 km/h 59% 0.0 mm
11:34 28.1 °C 19.1 °C 1012.4 hPa NNE 10.3 km/h 24.1 km/h 58.4% 0.0 mm
11:39 28.1 °C 19.3 °C 1012.5 hPa NNE 12.4 km/h 24.5 km/h 59% 0.0 mm
11:44 28.1 °C 19.3 °C 1012.5 hPa NE 14 km/h 24.1 km/h 59% 0.0 mm
11:49 28.1 °C 19.4 °C 1012.5 hPa NE 14.5 km/h 24.1 km/h 59.1% 0.0 mm
11:54 28.3 °C 19.2 °C 1012.5 hPa NE 14.8 km/h 22.5 km/h 58.1% 0.0 mm
11:59 28.5 °C 19.4 °C 1012.5 hPa NNE 14.3 km/h 22.5 km/h 58% 0.0 mm
12:04 28.7 °C 19.8 °C 1012.5 hPa NE 14 km/h 25.1 km/h 58.9% 0.0 mm
12:09 28.7 °C 19.7 °C 1012.5 hPa NE 14.5 km/h 25.9 km/h 58.2% 0.0 mm
12:14 28.7 °C 19.5 °C 1012.5 hPa NNE 14.8 km/h 29.6 km/h 57.4% 0.0 mm
12:19 28.7 °C 19.4 °C 1012.5 hPa NE 15.3 km/h 29 km/h 57.1% 0.0 mm
12:24 28.9 °C 19.3 °C 1012.5 hPa NE 15.6 km/h 27.8 km/h 56.4% 0.0 mm
12:29 28.8 °C 19.3 °C 1012.5 hPa NE 15.9 km/h 27.4 km/h 56.5% 0.0 mm
12:34 28.9 °C 19.6 °C 1012.5 hPa NNE 16.1 km/h 26.2 km/h 57.1% 0.0 mm
12:39 28.9 °C 19.6 °C 1012.5 hPa NE 15.8 km/h 25.9 km/h 57.1% 0.0 mm
12:44 28.9 °C 19.7 °C 1012.4 hPa NE 15.6 km/h 25.7 km/h 57.6% 0.0 mm
12:49 29 °C 19.6 °C 1012.4 hPa NE 15.6 km/h 29.1 km/h 57.2% 0.0 mm
12:54 28.9 °C 19.5 °C 1012.5 hPa NE 15.6 km/h 29.6 km/h 57% 0.0 mm
12:59 29 °C 19.8 °C 1012.5 hPa NE 15.1 km/h 29 km/h 57.9% 0.0 mm
13:04 29.1 °C 20.2 °C 1012.5 hPa NE 14.8 km/h 24.1 km/h 58.6% 0.0 mm
13:09 29.3 °C 20 °C 1012.5 hPa NE 15.3 km/h 25.9 km/h 57.3% 0.0 mm
13:14 29.3 °C 19.9 °C 1012.5 hPa NE 15.6 km/h 25.9 km/h 57.1% 0.0 mm
13:19 29.4 °C 19.8 °C 1012.5 hPa NE 15.1 km/h 25.7 km/h 56.1% 0.0 mm
13:24 29.6 °C 19.8 °C 1012.5 hPa NE 14.8 km/h 24.1 km/h 56% 0.0 mm
13:29 29.4 °C 19.7 °C 1012.5 hPa NE 14.8 km/h 26.2 km/h 56% 0.0 mm
13:34 29.4 °C 19.6 °C 1012.5 hPa NE 14.8 km/h 25.7 km/h 55.7% 0.0 mm
13:39 29.6 °C 19.7 °C 1012.5 hPa NE 14.3 km/h 24.5 km/h 55.2% 0.0 mm
13:44 29.7 °C 19.6 °C 1012.5 hPa NE 14 km/h 24.5 km/h 54.7% 0.0 mm
13:49 29.7 °C 19.6 °C 1012.5 hPa NE 14 km/h 26.2 km/h 54.5% 0.0 mm
13:54 29.7 °C 19.7 °C 1012.5 hPa NE 14 km/h 25.9 km/h 55% 0.0 mm
13:59 29.8 °C 19.7 °C 1012.4 hPa NNE 14.9 km/h 25.7 km/h 54.8% 0.0 mm
14:04 29.8 °C 19.6 °C 1012.4 hPa NE 15.6 km/h 26.2 km/h 54.2% 0.0 mm
14:09 29.8 °C 19.7 °C 1012.4 hPa NE 15.1 km/h 25.7 km/h 54.6% 0.0 mm
14:14 30 °C 19.7 °C 1012.4 hPa NE 14.8 km/h 25.9 km/h 54.1% 0.0 mm
14:19 30 °C 19.6 °C 1012.4 hPa NE 14.3 km/h 28.6 km/h 53.6% 0.0 mm
14:24 30 °C 19.3 °C 1012.4 hPa NE 14 km/h 29.6 km/h 52.8% 0.0 mm
14:29 29.9 °C 19.5 °C 1012.3 hPa NE 15.3 km/h 29 km/h 53.5% 0.0 mm
14:34 29.8 °C 19.5 °C 1012.3 hPa NE 16.1 km/h 29.8 km/h 54.1% 0.0 mm
14:39 29.7 °C 19.5 °C 1012.3 hPa NE 17.3 km/h 30.6 km/h 54.2% 0.0 mm
14:44 29.8 °C 19.7 °C 1012.3 hPa NE 18 km/h 27.4 km/h 54.4% 0.0 mm
14:49 30 °C 19.2 °C 1012.3 hPa NE 17 km/h 29.1 km/h 52.6% 0.0 mm
14:54 29.9 °C 19.4 °C 1012.3 hPa NE 16.1 km/h 29.6 km/h 53.5% 0.0 mm
14:59 30.1 °C 19.5 °C 1012.3 hPa NE 15.3 km/h 29 km/h 53.1% 0.0 mm
15:04 30.1 °C 19.5 °C 1012.3 hPa NE 14.8 km/h 29.6 km/h 53% 0.0 mm
15:09 30.2 °C 19.4 °C 1012.3 hPa NE 15.6 km/h 29.1 km/h 52.6% 0.0 mm
15:14 30.1 °C 19 °C 1012.2 hPa NE 16.1 km/h 29.6 km/h 51.4% 0.0 mm
15:19 30.2 °C 19.1 °C 1012.2 hPa NE 16.8 km/h 29 km/h 51.7% 0.0 mm
15:24 30.2 °C 19.1 °C 1012.3 hPa NE 17.2 km/h 31.5 km/h 51.6% 0.0 mm
15:29 30 °C 19.1 °C 1012.3 hPa NE 17.2 km/h 32.2 km/h 52.2% 0.0 mm
15:34 30 °C 19.1 °C 1012.3 hPa NE 17.2 km/h 34.3 km/h 52% 0.0 mm
15:39 30.2 °C 18.9 °C 1012.3 hPa NE 17.2 km/h 33.8 km/h 51% 0.0 mm
15:44 30.2 °C 18.9 °C 1012.3 hPa NE 17.2 km/h 33.3 km/h 50.8% 0.0 mm
15:49 30.1 °C 19 °C 1012.3 hPa NE 17.9 km/h 33.8 km/h 51.4% 0.0 mm
15:54 30.1 °C 19.4 °C 1012.3 hPa NE 18.3 km/h 27 km/h 52.8% 0.0 mm
15:59 30.2 °C 19.3 °C 1012.2 hPa NE 17 km/h 33.3 km/h 52.1% 0.0 mm
16:04 30.1 °C 19.1 °C 1012.2 hPa NE 16.1 km/h 33.8 km/h 51.9% 0.0 mm
16:09 30.1 °C 19.3 °C 1012.2 hPa NE 16.8 km/h 30.6 km/h 52.4% 0.0 mm
16:14 30.2 °C 19.5 °C 1012.2 hPa NE 17.2 km/h 29.8 km/h 52.8% 0.0 mm
16:19 30 °C 19.4 °C 1012.2 hPa NE 17.2 km/h 30.6 km/h 53.3% 0.0 mm
16:24 29.9 °C 19.6 °C 1012.2 hPa NE 17.2 km/h 27.8 km/h 53.9% 0.0 mm
16:29 30.1 °C 19.5 °C 1012.2 hPa NE 17.2 km/h 27.8 km/h 53.1% 0.0 mm
16:34 29.9 °C 19.7 °C 1012.2 hPa NE 17.2 km/h 28.2 km/h 54.2% 0.0 mm
16:39 29.8 °C 19.9 °C 1012.2 hPa NE 18.3 km/h 28.2 km/h 55.2% 0.0 mm
16:44 29.7 °C 19.7 °C 1012.1 hPa NE 19 km/h 30.6 km/h 54.9% 0.0 mm
16:49 29.7 °C 20 °C 1012.1 hPa NE 19.5 km/h 31.7 km/h 56.1% 0.0 mm
16:54 29.7 °C 20.2 °C 1012.1 hPa NE 19.8 km/h 32.2 km/h 56.7% 0.0 mm
16:59 29.8 °C 19.9 °C 1012.0 hPa ENE 17.9 km/h 30.6 km/h 55.3% 0.0 mm
17:04 29.8 °C 19.9 °C 1012.0 hPa NE 16.4 km/h 28.2 km/h 55.4% 0.0 mm
17:09 29.5 °C 20 °C 1012.1 hPa NE 17.4 km/h 31.5 km/h 56.7% 0.0 mm
17:14 29.3 °C 20.3 °C 1012.1 hPa NE 18 km/h 37 km/h 58.5% 0.0 mm
17:19 29.3 °C 20.3 °C 1012.1 hPa NE 19.1 km/h 37.8 km/h 58.3% 0.0 mm
17:24 29.3 °C 20.3 °C 1012.1 hPa NE 19.8 km/h 37 km/h 58.3% 0.0 mm
17:29 29.4 °C 20 °C 1012.0 hPa NE 18.4 km/h 34.3 km/h 57.2% 0.0 mm
17:34 29.3 °C 19.9 °C 1012.0 hPa NE 17.2 km/h 33.8 km/h 57% 0.0 mm
17:39 29.2 °C 19.9 °C 1012.0 hPa NE 18.3 km/h 30.6 km/h 57.4% 0.0 mm
17:44 29.2 °C 20.1 °C 1012.0 hPa NE 19 km/h 31.7 km/h 58% 0.0 mm
17:49 29.1 °C 20.2 °C 1012.0 hPa NE 19.5 km/h 34.3 km/h 58.8% 0.0 mm
17:54 29.2 °C 20.1 °C 1012.0 hPa NE 19.8 km/h 37.8 km/h 58% 0.0 mm
17:59 29.1 °C 20 °C 1012.0 hPa NE 18.9 km/h 37 km/h 58% 0.0 mm
18:04 29.1 °C 20 °C 1012.0 hPa NE 18.4 km/h 27.8 km/h 58% 0.0 mm
18:09 29.1 °C 20.1 °C 1012.0 hPa NE 18.4 km/h 33.3 km/h 58.4% 0.0 mm
18:14 28.9 °C 19.9 °C 1011.9 hPa NE 18.4 km/h 33.8 km/h 58.1% 0.0 mm
18:19 28.8 °C 19.6 °C 1011.9 hPa NE 18.4 km/h 33.3 km/h 57.4% 0.0 mm
18:24 28.8 °C 19.7 °C 1011.9 hPa NE 18.4 km/h 33.8 km/h 57.9% 0.0 mm
18:29 28.8 °C 19.6 °C 1011.9 hPa NE 18.4 km/h 32.2 km/h 57.4% 0.0 mm
18:34 29 °C 19.6 °C 1011.9 hPa ENE 18.4 km/h 27.4 km/h 57% 0.0 mm
18:39 29 °C 19.5 °C 1012.0 hPa ENE 15.8 km/h 33.3 km/h 56.7% 0.0 mm
18:44 28.9 °C 19.3 °C 1012.0 hPa NE 14 km/h 33.8 km/h 56.3% 0.0 mm
18:49 28.9 °C 19.3 °C 1012.0 hPa NE 14.9 km/h 24.1 km/h 56.3% 0.0 mm
18:54 29.2 °C 19.3 °C 1012.0 hPa ENE 15.6 km/h 25.9 km/h 55.4% 0.0 mm
18:59 29.2 °C 19.3 °C 1011.9 hPa ENE 13.2 km/h 25.7 km/h 55% 0.0 mm
19:04 29.3 °C 19.2 °C 1011.9 hPa NE 11.9 km/h 22.5 km/h 54.5% 0.0 mm
19:09 29.3 °C 19.2 °C 1011.9 hPa Este 11.4 km/h 24.5 km/h 54.7% 0.0 mm
19:14 29.1 °C 19.1 °C 1011.9 hPa ENE 11.1 km/h 27.8 km/h 55% 0.0 mm
19:19 28.9 °C 19.2 °C 1011.9 hPa NE 12.7 km/h 27.4 km/h 55.8% 0.0 mm
19:24 28.8 °C 19.3 °C 1012.0 hPa NE 14 km/h 25.7 km/h 56.5% 0.0 mm
19:29 28.7 °C 19.3 °C 1012.0 hPa NE 13.4 km/h 25.9 km/h 56.8% 0.0 mm
19:34 28.7 °C 19.5 °C 1012.0 hPa NNE 13 km/h 25.7 km/h 57.8% 0.0 mm
19:39 28.6 °C 20 °C 1012.0 hPa NE 13.4 km/h 22.5 km/h 59.7% 0.0 mm
19:44 28.4 °C 20 °C 1012.0 hPa NE 13.7 km/h 22.5 km/h 60.1% 0.0 mm
19:49 28.3 °C 19.9 °C 1012.0 hPa NE 13.9 km/h 24.1 km/h 60.6% 0.0 mm
19:54 28.3 °C 20.4 °C 1012.1 hPa ENE 14 km/h 24.1 km/h 62.3% 0.0 mm
19:59 28.2 °C 20.5 °C 1012.1 hPa NE 12.1 km/h 22.5 km/h 63% 0.0 mm
20:04 28.2 °C 20.5 °C 1012.1 hPa NE 11.1 km/h 17.2 km/h 63% 0.0 mm
20:09 28.2 °C 20.4 °C 1012.3 hPa NE 10.6 km/h 22.2 km/h 63% 0.0 mm
20:14 28 °C 20.4 °C 1012.3 hPa NE 10.3 km/h 24.5 km/h 63.5% 0.0 mm
20:19 27.9 °C 20.4 °C 1012.3 hPa NE 12.3 km/h 24.1 km/h 64% 0.0 mm
20:24 27.7 °C 20.3 °C 1012.4 hPa NE 13.7 km/h 22.5 km/h 64% 0.0 mm
20:29 27.7 °C 20.2 °C 1012.4 hPa NE 13.9 km/h 22.5 km/h 64% 0.0 mm
20:34 27.6 °C 20.2 °C 1012.4 hPa NE 14 km/h 22.5 km/h 64.1% 0.0 mm
20:39 27.4 °C 20.2 °C 1012.5 hPa NE 14.5 km/h 24.1 km/h 65% 0.0 mm
20:44 27.4 °C 20.2 °C 1012.5 hPa NE 14.8 km/h 24.1 km/h 65% 0.0 mm
20:49 27.4 °C 20.2 °C 1012.5 hPa NE 13.2 km/h 20.9 km/h 65% 0.0 mm
20:54 27.3 °C 20.3 °C 1012.5 hPa NE 11.9 km/h 20.4 km/h 65.4% 0.0 mm
20:59 27.2 °C 20.5 °C 1012.5 hPa NE 11.4 km/h 20.9 km/h 66.8% 0.0 mm
21:04 27.2 °C 20.5 °C 1012.5 hPa NE 11.1 km/h 20.1 km/h 67% 0.0 mm
21:09 27 °C 20.6 °C 1012.6 hPa NE 11.6 km/h 22.2 km/h 67.8% 0.0 mm
21:14 26.9 °C 20.7 °C 1012.6 hPa NE 11.9 km/h 22.5 km/h 69% 0.0 mm
21:19 26.8 °C 20.8 °C 1012.6 hPa NE 12.1 km/h 20.9 km/h 69.8% 0.0 mm
21:24 26.7 °C 20.8 °C 1012.8 hPa NE 12.2 km/h 18.5 km/h 70% 0.0 mm
21:29 26.6 °C 20.9 °C 1012.8 hPa NE 11.5 km/h 19.3 km/h 71% 0.0 mm
21:34 26.6 °C 20.9 °C 1012.8 hPa NE 11.1 km/h 14.8 km/h 71% 0.0 mm
21:39 26.5 °C 20.8 °C 1012.9 hPa NE 9.7 km/h 14.5 km/h 71% 0.0 mm
21:44 26.4 °C 20.9 °C 1012.9 hPa NE 8.7 km/h 14.8 km/h 71.7% 0.0 mm
21:49 26.3 °C 20.9 °C 1012.9 hPa NE 8.1 km/h 15.6 km/h 72% 0.0 mm
21:54 26.3 °C 21 °C 1013.2 hPa NE 7.6 km/h 16.1 km/h 72.9% 0.0 mm
21:59 26.2 °C 21 °C 1013.2 hPa NE 7.2 km/h 13.7 km/h 73% 0.0 mm
22:04 26.2 °C 21.2 °C 1013.2 hPa NE 6.9 km/h 14.5 km/h 74% 0.0 mm
22:09 26.1 °C 21.2 °C 1013.2 hPa NE 7.8 km/h 12.9 km/h 74.7% 0.0 mm
22:14 25.9 °C 21.2 °C 1013.2 hPa ENE 8.4 km/h 13 km/h 75% 0.0 mm
22:19 25.9 °C 21.3 °C 1013.2 hPa NE 7.5 km/h 12.9 km/h 75.8% 0.0 mm
22:24 25.8 °C 21.3 °C 1013.5 hPa NE 6.9 km/h 11.3 km/h 76% 0.0 mm
22:29 25.8 °C 21.2 °C 1013.5 hPa NE 6.6 km/h 11.9 km/h 76.1% 0.0 mm
22:34 25.8 °C 21.4 °C 1013.5 hPa NE 6.5 km/h 11.3 km/h 77% 0.0 mm
22:39 25.7 °C 21.4 °C 1013.6 hPa NE 6.5 km/h 13.7 km/h 77% 0.0 mm
22:44 25.7 °C 21.4 °C 1013.6 hPa ENE 6.5 km/h 14.5 km/h 77% 0.0 mm
22:49 25.7 °C 21.5 °C 1013.6 hPa NE 5.6 km/h 9.7 km/h 77.5% 0.0 mm
22:54 25.7 °C 21.5 °C 1013.8 hPa NE 5 km/h 10 km/h 78% 0.0 mm
22:59 25.6 °C 21.5 °C 1013.8 hPa NNE 5.9 km/h 10 km/h 78.4% 0.0 mm
23:04 25.4 °C 21.5 °C 1013.8 hPa NE 6.5 km/h 11.1 km/h 79% 0.0 mm
23:09 25.4 °C 21.5 °C 1013.9 hPa NE 6.7 km/h 15.6 km/h 79.2% 0.0 mm
23:14 25.4 °C 21.7 °C 1013.9 hPa NE 6.9 km/h 16.1 km/h 80% 0.0 mm
23:19 25.3 °C 21.6 °C 1013.9 hPa NE 6.9 km/h 10 km/h 80% 0.0 mm
23:24 25.3 °C 21.6 °C 1013.9 hPa NE 6.9 km/h 10 km/h 80.1% 0.0 mm
23:29 25.2 °C 21.7 °C 1013.9 hPa NE 6.7 km/h 11.1 km/h 81% 0.0 mm
23:34 25.2 °C 21.7 °C 1013.9 hPa NE 6.5 km/h 15.6 km/h 81% 0.0 mm
23:39 25.1 °C 21.8 °C 1013.9 hPa NE 8.2 km/h 16.1 km/h 82% 0.0 mm
23:44 25.1 °C 21.8 °C 1013.8 hPa NE 9.5 km/h 14.5 km/h 82% 0.0 mm
23:49 25.1 °C 21.8 °C 1013.8 hPa NNE 8.8 km/h 13 km/h 82% 0.0 mm
23:54 25 °C 21.7 °C 1013.8 hPa NNE 8.4 km/h 13 km/h 82% 0.0 mm
23:59 24.9 °C 21.8 °C 1013.8 hPa NNE 7.5 km/h 12.9 km/h 82.7% 0.0 mm
Murcia-Puente Tocinos, España
Compliments of Weather Underground - 3 mb

La estación de MeteoMurcia.com, publica sus datos en los siguientes proyectos:

Weather Underground PWS IMURCIAP2 Meteoclimatic www.awekas.at

W3Counter
Web Analytics